sensor_id;sensor_type;location;lat;lon;timestamp;pressure;altitude;pressure_sealevel;temperature;humidity
39141;BME280;24875;48.436;10.298;2022-12-18T00:02:07;97360.56;;;-5.25;100.00
39141;BME280;24875;48.436;10.298;2022-12-18T00:04:33;97365.47;;;-5.42;100.00
39141;BME280;24875;48.436;10.298;2022-12-18T00:07:01;97366.56;;;-5.49;100.00
39141;BME280;24875;48.436;10.298;2022-12-18T00:09:28;97371.28;;;-5.84;100.00
39141;BME280;24875;48.436;10.298;2022-12-18T00:11:54;97374.59;;;-5.58;100.00
39141;BME280;24875;48.436;10.298;2022-12-18T00:14:21;97366.22;;;-5.63;100.00
39141;BME280;24875;48.436;10.298;2022-12-18T00:16:47;97356.63;;;-5.81;100.00
39141;BME280;24875;48.436;10.298;2022-12-18T00:19:14;97369.25;;;-5.52;100.00
39141;BME280;24875;48.436;10.298;2022-12-18T00:21:41;97363.59;;;-5.37;100.00
39141;BME280;24875;48.436;10.298;2022-12-18T00:24:10;97366.59;;;-5.26;100.00
39141;BME280;24875;48.436;10.298;2022-12-18T00:26:38;97362.19;;;-5.23;100.00
39141;BME280;24875;48.436;10.298;2022-12-18T00:29:07;97352.53;;;-5.16;100.00
39141;BME280;24875;48.436;10.298;2022-12-18T00:31:34;97362.66;;;-5.36;100.00
39141;BME280;24875;48.436;10.298;2022-12-18T00:34:01;97364.06;;;-5.50;100.00
39141;BME280;24875;48.436;10.298;2022-12-18T00:36:29;97382.13;;;-5.29;100.00
39141;BME280;24875;48.436;10.298;2022-12-18T00:38:57;97383.06;;;-5.32;100.00
39141;BME280;24875;48.436;10.298;2022-12-18T00:41:25;97374.50;;;-5.32;100.00
39141;BME280;24875;48.436;10.298;2022-12-18T00:44:11;97381.31;;;-5.31;100.00
39141;BME280;24875;48.436;10.298;2022-12-18T00:46:38;97369.69;;;-5.41;100.00
39141;BME280;24875;48.436;10.298;2022-12-18T00:49:05;97379.75;;;-5.35;100.00
39141;BME280;24875;48.436;10.298;2022-12-18T00:51:31;97381.56;;;-5.37;100.00
39141;BME280;24875;48.436;10.298;2022-12-18T00:53:58;97394.66;;;-5.44;100.00
39141;BME280;24875;48.436;10.298;2022-12-18T00:56:26;97397.91;;;-5.64;100.00
39141;BME280;24875;48.436;10.298;2022-12-18T00:58:53;97400.50;;;-5.41;100.00
39141;BME280;24875;48.436;10.298;2022-12-18T01:01:19;97402.44;;;-5.23;100.00
39141;BME280;24875;48.436;10.298;2022-12-18T01:03:46;97399.81;;;-5.22;100.00
39141;BME280;24875;48.436;10.298;2022-12-18T01:06:14;97403.28;;;-5.23;100.00
39141;BME280;24875;48.436;10.298;2022-12-18T01:08:41;97406.31;;;-5.36;100.00
39141;BME280;24875;48.436;10.298;2022-12-18T01:11:08;97400.91;;;-5.29;100.00
39141;BME280;24875;48.436;10.298;2022-12-18T01:13:37;97398.19;;;-5.24;100.00
39141;BME280;24875;48.436;10.298;2022-12-18T01:16:04;97409.22;;;-5.45;100.00
39141;BME280;24875;48.436;10.298;2022-12-18T01:18:31;97414.16;;;-5.39;100.00
39141;BME280;24875;48.436;10.298;2022-12-18T01:20:57;97411.84;;;-5.46;100.00
39141;BME280;24875;48.436;10.298;2022-12-18T01:23:27;97408.69;;;-5.30;100.00
39141;BME280;24875;48.436;10.298;2022-12-18T01:25:53;97409.97;;;-5.42;100.00
39141;BME280;24875;48.436;10.298;2022-12-18T01:28:20;97414.25;;;-5.42;100.00
39141;BME280;24875;48.436;10.298;2022-12-18T01:30:48;97417.81;;;-5.46;100.00
39141;BME280;24875;48.436;10.298;2022-12-18T01:33:14;97410.53;;;-5.58;100.00
39141;BME280;24875;48.436;10.298;2022-12-18T01:35:41;97414.41;;;-5.46;100.00
39141;BME280;24875;48.436;10.298;2022-12-18T01:38:08;97411.41;;;-5.57;100.00
39141;BME280;24875;48.436;10.298;2022-12-18T01:40:35;97413.66;;;-5.48;100.00
39141;BME280;24875;48.436;10.298;2022-12-18T01:43:02;97420.75;;;-5.56;100.00
39141;BME280;24875;48.436;10.298;2022-12-18T01:45:30;97414.41;;;-5.46;100.00
39141;BME280;24875;48.436;10.298;2022-12-18T01:47:59;97416.56;;;-5.59;100.00
39141;BME280;24875;48.436;10.298;2022-12-18T01:50:31;97428.38;;;-5.55;100.00
39141;BME280;24875;48.436;10.298;2022-12-18T01:53:02;97424.84;;;-5.51;100.00
39141;BME280;24875;48.436;10.298;2022-12-18T01:55:33;97429.50;;;-5.38;100.00
39141;BME280;24875;48.436;10.298;2022-12-18T01:58:02;97418.47;;;-5.40;100.00
39141;BME280;24875;48.436;10.298;2022-12-18T02:00:30;97421.13;;;-5.67;100.00
39141;BME280;24875;48.436;10.298;2022-12-18T02:02:57;97422.75;;;-5.64;100.00
39141;BME280;24875;48.436;10.298;2022-12-18T02:05:32;97427.94;;;-5.66;100.00
39141;BME280;24875;48.436;10.298;2022-12-18T02:08:08;97426.03;;;-5.84;100.00
39141;BME280;24875;48.436;10.298;2022-12-18T02:10:42;97421.53;;;-5.77;100.00
39141;BME280;24875;48.436;10.298;2022-12-18T02:13:13;97423.53;;;-5.62;100.00
39141;BME280;24875;48.436;10.298;2022-12-18T02:15:44;97428.63;;;-5.61;100.00
39141;BME280;24875;48.436;10.298;2022-12-18T02:18:19;97428.81;;;-5.43;100.00
39141;BME280;24875;48.436;10.298;2022-12-18T02:20:49;97417.97;;;-5.50;100.00
39141;BME280;24875;48.436;10.298;2022-12-18T02:23:25;97418.41;;;-5.38;100.00
39141;BME280;24875;48.436;10.298;2022-12-18T02:26:07;97422.53;;;-5.34;100.00
39141;BME280;24875;48.436;10.298;2022-12-18T02:28:40;97419.66;;;-5.49;100.00
39141;BME280;24875;48.436;10.298;2022-12-18T02:31:11;97417.91;;;-5.49;100.00
39141;BME280;24875;48.436;10.298;2022-12-18T02:33:40;97411.97;;;-5.74;100.00
39141;BME280;24875;48.436;10.298;2022-12-18T02:36:09;97418.34;;;-5.61;100.00
39141;BME280;24875;48.436;10.298;2022-12-18T02:38:38;97410.78;;;-5.65;100.00
39141;BME280;24875;48.436;10.298;2022-12-18T02:41:07;97399.50;;;-5.60;100.00
39141;BME280;24875;48.436;10.298;2022-12-18T02:43:34;97399.59;;;-5.63;100.00
39141;BME280;24875;48.436;10.298;2022-12-18T02:46:24;97403.53;;;-5.53;100.00
39141;BME280;24875;48.436;10.298;2022-12-18T02:48:55;97403.38;;;-5.48;100.00
39141;BME280;24875;48.436;10.298;2022-12-18T02:51:29;97416.97;;;-5.46;100.00
39141;BME280;24875;48.436;10.298;2022-12-18T02:54:00;97423.19;;;-5.76;100.00
39141;BME280;24875;48.436;10.298;2022-12-18T02:56:37;97418.91;;;-5.53;100.00
39141;BME280;24875;48.436;10.298;2022-12-18T02:59:08;97420.22;;;-5.66;100.00
39141;BME280;24875;48.436;10.298;2022-12-18T03:01:42;97418.13;;;-5.55;100.00
39141;BME280;24875;48.436;10.298;2022-12-18T03:04:14;97431.88;;;-5.56;100.00
39141;BME280;24875;48.436;10.298;2022-12-18T03:06:46;97436.09;;;-5.55;100.00
39141;BME280;24875;48.436;10.298;2022-12-18T03:09:18;97425.63;;;-5.49;100.00
39141;BME280;24875;48.436;10.298;2022-12-18T03:11:54;97414.34;;;-5.45;100.00
39141;BME280;24875;48.436;10.298;2022-12-18T03:14:40;97416.84;;;-5.44;100.00
39141;BME280;24875;48.436;10.298;2022-12-18T03:17:10;97423.94;;;-5.74;100.00
39141;BME280;24875;48.436;10.298;2022-12-18T03:19:41;97419.44;;;-5.68;100.00
39141;BME280;24875;48.436;10.298;2022-12-18T03:22:10;97427.59;;;-5.80;100.00
39141;BME280;24875;48.436;10.298;2022-12-18T03:24:37;97434.31;;;-6.02;100.00
39141;BME280;24875;48.436;10.298;2022-12-18T03:27:08;97428.81;;;-5.67;100.00
39141;BME280;24875;48.436;10.298;2022-12-18T03:29:38;97423.19;;;-5.76;100.00
39141;BME280;24875;48.436;10.298;2022-12-18T03:32:11;97434.28;;;-5.76;100.00
39141;BME280;24875;48.436;10.298;2022-12-18T03:34:41;97441.22;;;-5.78;100.00
39141;BME280;24875;48.436;10.298;2022-12-18T03:37:09;97458.38;;;-5.80;100.00
39141;BME280;24875;48.436;10.298;2022-12-18T03:39:36;97450.75;;;-5.81;100.00
39141;BME280;24875;48.436;10.298;2022-12-18T03:42:08;97442.00;;;-5.76;100.00
39141;BME280;24875;48.436;10.298;2022-12-18T03:44:42;97440.13;;;-5.72;100.00
39141;BME280;24875;48.436;10.298;2022-12-18T03:47:15;97446.34;;;-5.78;100.00
39141;BME280;24875;48.436;10.298;2022-12-18T03:49:48;97439.72;;;-5.85;100.00
39141;BME280;24875;48.436;10.298;2022-12-18T03:52:20;97430.16;;;-5.80;100.00
39141;BME280;24875;48.436;10.298;2022-12-18T03:54:51;97425.25;;;-5.63;100.00
39141;BME280;24875;48.436;10.298;2022-12-18T03:57:21;97422.63;;;-5.61;100.00
39141;BME280;24875;48.436;10.298;2022-12-18T03:59:52;97423.56;;;-5.64;100.00
39141;BME280;24875;48.436;10.298;2022-12-18T04:02:22;97419.44;;;-5.68;100.00
39141;BME280;24875;48.436;10.298;2022-12-18T04:04:51;97422.00;;;-5.68;100.00
39141;BME280;24875;48.436;10.298;2022-12-18T04:07:20;97427.69;;;-5.83;100.00
39141;BME280;24875;48.436;10.298;2022-12-18T04:09:48;97442.41;;;-5.88;100.00
39141;BME280;24875;48.436;10.298;2022-12-18T04:12:15;97437.72;;;-5.75;100.00
39141;BME280;24875;48.436;10.298;2022-12-18T04:14:43;97435.22;;;-5.78;100.00
39141;BME280;24875;48.436;10.298;2022-12-18T04:17:10;97432.50;;;-5.74;100.00
39141;BME280;24875;48.436;10.298;2022-12-18T04:19:36;97441.22;;;-5.78;100.00
39141;BME280;24875;48.436;10.298;2022-12-18T04:22:03;97440.81;;;-5.67;100.00
39141;BME280;24875;48.436;10.298;2022-12-18T04:24:29;97449.25;;;-5.64;100.00
39141;BME280;24875;48.436;10.298;2022-12-18T04:26:56;97446.84;;;-5.68;100.00
39141;BME280;24875;48.436;10.298;2022-12-18T04:29:22;97448.22;;;-5.83;100.00
39141;BME280;24875;48.436;10.298;2022-12-18T04:31:50;97451.44;;;-5.76;100.00
39141;BME280;24875;48.436;10.298;2022-12-18T04:34:17;97455.44;;;-5.69;100.00
39141;BME280;24875;48.436;10.298;2022-12-18T04:36:43;97447.16;;;-5.53;100.00
39141;BME280;24875;48.436;10.298;2022-12-18T04:39:10;97449.22;;;-5.62;100.00
39141;BME280;24875;48.436;10.298;2022-12-18T04:41:37;97458.25;;;-5.52;100.00
39141;BME280;24875;48.436;10.298;2022-12-18T04:44:04;97455.13;;;-5.60;100.00
39141;BME280;24875;48.436;10.298;2022-12-18T04:46:30;97455.69;;;-5.75;100.00
39141;BME280;24875;48.436;10.298;2022-12-18T04:48:58;97458.25;;;-5.52;100.00
39141;BME280;24875;48.436;10.298;2022-12-18T04:51:25;97455.56;;;-5.48;100.00
39141;BME280;24875;48.436;10.298;2022-12-18T04:53:51;97455.88;;;-5.57;100.00
39141;BME280;24875;48.436;10.298;2022-12-18T04:56:18;97458.19;;;-5.49;100.00
39141;BME280;24875;48.436;10.298;2022-12-18T04:58:44;97473.03;;;-5.59;100.00
39141;BME280;24875;48.436;10.298;2022-12-18T05:01:12;97474.59;;;-5.55;100.00
39141;BME280;24875;48.436;10.298;2022-12-18T05:03:40;97479.91;;;-5.59;100.00
39141;BME280;24875;48.436;10.298;2022-12-18T05:06:09;97464.75;;;-5.43;100.00
39141;BME280;24875;48.436;10.298;2022-12-18T05:08:36;97465.50;;;-5.39;100.00
39141;BME280;24875;48.436;10.298;2022-12-18T05:11:04;97468.06;;;-5.39;100.00
39141;BME280;24875;48.436;10.298;2022-12-18T05:13:32;97464.81;;;-5.44;100.00
39141;BME280;24875;48.436;10.298;2022-12-18T05:15:59;97461.06;;;-5.34;100.00
39141;BME280;24875;48.436;10.298;2022-12-18T05:18:26;97465.94;;;-5.27;100.00
39141;BME280;24875;48.436;10.298;2022-12-18T05:20:54;97462.13;;;-5.17;100.00
39141;BME280;24875;48.436;10.298;2022-12-18T05:23:23;97470.22;;;-5.27;100.00
39141;BME280;24875;48.436;10.298;2022-12-18T05:25:51;97477.25;;;-5.08;100.00
39141;BME280;24875;48.436;10.298;2022-12-18T05:28:18;97473.81;;;-5.08;100.00
39141;BME280;24875;48.436;10.298;2022-12-18T05:30:47;97467.47;;;-4.98;100.00
39141;BME280;24875;48.436;10.298;2022-12-18T05:33:14;97472.72;;;-5.01;100.00
39141;BME280;24875;48.436;10.298;2022-12-18T05:35:40;97484.25;;;-4.88;100.00
39141;BME280;24875;48.436;10.298;2022-12-18T05:38:07;97480.47;;;-4.80;100.00
39141;BME280;24875;48.436;10.298;2022-12-18T05:40:35;97469.31;;;-4.79;100.00
39141;BME280;24875;48.436;10.298;2022-12-18T05:43:01;97471.16;;;-4.83;100.00
39141;BME280;24875;48.436;10.298;2022-12-18T05:45:28;97477.84;;;-4.79;100.00
39141;BME280;24875;48.436;10.298;2022-12-18T05:47:55;97481.63;;;-4.87;100.00
39141;BME280;24875;48.436;10.298;2022-12-18T05:50:21;97476.63;;;-4.91;100.00
39141;BME280;24875;48.436;10.298;2022-12-18T05:52:48;97482.97;;;-4.77;100.00
39141;BME280;24875;48.436;10.298;2022-12-18T05:55:15;97482.84;;;-4.74;100.00
39141;BME280;24875;48.436;10.298;2022-12-18T05:57:42;97488.72;;;-4.71;100.00
39141;BME280;24875;48.436;10.298;2022-12-18T06:00:11;97486.16;;;-4.71;100.00
39141;BME280;24875;48.436;10.298;2022-12-18T06:02:38;97482.50;;;-4.65;100.00
39141;BME280;24875;48.436;10.298;2022-12-18T06:05:05;97477.63;;;-4.50;100.00
39141;BME280;24875;48.436;10.298;2022-12-18T06:07:32;97472.63;;;-4.53;100.00
39141;BME280;24875;48.436;10.298;2022-12-18T06:09:58;97477.16;;;-4.59;100.00
39141;BME280;24875;48.436;10.298;2022-12-18T06:12:25;97480.75;;;-4.42;100.00
39141;BME280;24875;48.436;10.298;2022-12-18T06:14:52;97482.28;;;-4.36;100.00
39141;BME280;24875;48.436;10.298;2022-12-18T06:17:19;97479.91;;;-4.42;100.00
39141;BME280;24875;48.436;10.298;2022-12-18T06:19:46;97484.94;;;-4.61;100.00
39141;BME280;24875;48.436;10.298;2022-12-18T06:22:12;97491.16;;;-4.45;100.00
39141;BME280;24875;48.436;10.298;2022-12-18T06:24:39;97492.66;;;-4.39;100.00
39141;BME280;24875;48.436;10.298;2022-12-18T06:27:05;97481.00;;;-4.48;100.00
39141;BME280;24875;48.436;10.298;2022-12-18T06:29:32;97493.88;;;-4.49;100.00
39141;BME280;24875;48.436;10.298;2022-12-18T06:32:00;97499.94;;;-4.27;100.00
39141;BME280;24875;48.436;10.298;2022-12-18T06:34:26;97499.00;;;-4.26;100.00
39141;BME280;24875;48.436;10.298;2022-12-18T06:36:53;97498.97;;;-4.25;100.00
39141;BME280;24875;48.436;10.298;2022-12-18T06:39:19;97499.97;;;-4.29;100.00
39141;BME280;24875;48.436;10.298;2022-12-18T06:41:46;97493.56;;;-4.19;100.00
39141;BME280;24875;48.436;10.298;2022-12-18T06:44:12;97503.03;;;-4.20;100.00
39141;BME280;24875;48.436;10.298;2022-12-18T06:46:39;97489.88;;;-4.33;100.00
39141;BME280;24875;48.436;10.298;2022-12-18T06:49:07;97502.16;;;-4.19;100.00
39141;BME280;24875;48.436;10.298;2022-12-18T06:51:34;97502.00;;;-4.37;100.00
39141;BME280;24875;48.436;10.298;2022-12-18T06:54:01;97493.59;;;-4.42;100.00
39141;BME280;24875;48.436;10.298;2022-12-18T06:56:29;97495.06;;;-4.35;100.00
39141;BME280;24875;48.436;10.298;2022-12-18T06:58:55;97494.06;;;-4.31;100.00
39141;BME280;24875;48.436;10.298;2022-12-18T07:01:22;97504.00;;;-4.22;100.00
39141;BME280;24875;48.436;10.298;2022-12-18T07:03:51;97512.47;;;-4.20;100.00
39141;BME280;24875;48.436;10.298;2022-12-18T07:06:22;97514.00;;;-4.15;100.00
39141;BME280;24875;48.436;10.298;2022-12-18T07:08:49;97509.81;;;-4.17;100.00
39141;BME280;24875;48.436;10.298;2022-12-18T07:11:17;97509.69;;;-4.14;100.00
39141;BME280;24875;48.436;10.298;2022-12-18T07:13:45;97508.44;;;-4.04;100.00
39141;BME280;24875;48.436;10.298;2022-12-18T07:16:13;97516.50;;;-4.13;100.00
39141;BME280;24875;48.436;10.298;2022-12-18T07:18:41;97516.94;;;-4.02;100.00
39141;BME280;24875;48.436;10.298;2022-12-18T07:21:10;97518.38;;;-3.95;100.00
39141;BME280;24875;48.436;10.298;2022-12-18T07:23:38;97514.41;;;-4.04;100.00
39141;BME280;24875;48.436;10.298;2022-12-18T07:26:06;97524.84;;;-4.07;100.00
39141;BME280;24875;48.436;10.298;2022-12-18T07:28:34;97535.59;;;-3.97;100.00
39141;BME280;24875;48.436;10.298;2022-12-18T07:31:02;97540.75;;;-3.97;100.00
39141;BME280;24875;48.436;10.298;2022-12-18T07:33:29;97538.59;;;-4.08;100.00
39141;BME280;24875;48.436;10.298;2022-12-18T07:35:55;97544.47;;;-4.04;100.00
39141;BME280;24875;48.436;10.298;2022-12-18T07:38:22;97551.03;;;-3.96;100.00
39141;BME280;24875;48.436;10.298;2022-12-18T07:40:49;97555.63;;;-3.82;100.00
39141;BME280;24875;48.436;10.298;2022-12-18T07:43:16;97563.81;;;-3.94;100.00
39141;BME280;24875;48.436;10.298;2022-12-18T07:45:43;97572.25;;;-3.91;100.00
39141;BME280;24875;48.436;10.298;2022-12-18T07:48:09;97567.56;;;-4.03;100.00
39141;BME280;24875;48.436;10.298;2022-12-18T07:50:36;97575.47;;;-3.84;100.00
39141;BME280;24875;48.436;10.298;2022-12-18T07:53:03;97570.94;;;-3.37;100.00
39141;BME280;24875;48.436;10.298;2022-12-18T07:55:30;97575.16;;;-3.56;100.00
39141;BME280;24875;48.436;10.298;2022-12-18T07:58:00;97576.69;;;-3.52;100.00
39141;BME280;24875;48.436;10.298;2022-12-18T08:00:27;97578.56;;;-3.76;100.00
39141;BME280;24875;48.436;10.298;2022-12-18T08:02:53;97586.59;;;-3.63;100.00
39141;BME280;24875;48.436;10.298;2022-12-18T08:05:20;97589.28;;;-3.65;100.00
39141;BME280;24875;48.436;10.298;2022-12-18T08:07:47;97566.16;;;-3.67;100.00
39141;BME280;24875;48.436;10.298;2022-12-18T08:10:14;97568.38;;;-3.79;100.00
39141;BME280;24875;48.436;10.298;2022-12-18T08:12:40;97566.75;;;-3.61;100.00
39141;BME280;24875;48.436;10.298;2022-12-18T08:15:09;97565.50;;;-3.51;100.00
39141;BME280;24875;48.436;10.298;2022-12-18T08:17:35;97570.22;;;-3.62;100.00
39141;BME280;24875;48.436;10.298;2022-12-18T08:20:02;97576.81;;;-3.55;100.00
39141;BME280;24875;48.436;10.298;2022-12-18T08:22:29;97573.47;;;-3.57;100.00
39141;BME280;24875;48.436;10.298;2022-12-18T08:24:56;97574.78;;;-3.47;100.00
39141;BME280;24875;48.436;10.298;2022-12-18T08:27:22;97566.53;;;-3.55;100.00
39141;BME280;24875;48.436;10.298;2022-12-18T08:29:49;97555.13;;;-3.49;100.00
39141;BME280;24875;48.436;10.298;2022-12-18T08:32:16;97560.03;;;-3.43;100.00
39141;BME280;24875;48.436;10.298;2022-12-18T08:34:43;97559.91;;;-3.40;100.00
39141;BME280;24875;48.436;10.298;2022-12-18T08:37:09;97561.50;;;-3.58;100.00
39141;BME280;24875;48.436;10.298;2022-12-18T08:39:36;97561.06;;;-3.47;100.00
39141;BME280;24875;48.436;10.298;2022-12-18T08:42:03;97556.56;;;-3.42;100.00
39141;BME280;24875;48.436;10.298;2022-12-18T08:44:58;97561.34;;;-3.33;100.00
39141;BME280;24875;48.436;10.298;2022-12-18T08:47:26;97559.38;;;-3.27;100.00
39141;BME280;24875;48.436;10.298;2022-12-18T08:49:53;97555.63;;;-3.20;100.00
39141;BME280;24875;48.436;10.298;2022-12-18T08:52:19;97555.91;;;-3.26;100.00
39141;BME280;24875;48.436;10.298;2022-12-18T08:54:46;97551.94;;;-3.14;100.00
39141;BME280;24875;48.436;10.298;2022-12-18T08:57:12;97561.44;;;-3.15;100.00
39141;BME280;24875;48.436;10.298;2022-12-18T08:59:39;97564.31;;;-3.22;100.00
39141;BME280;24875;48.436;10.298;2022-12-18T09:02:06;97559.94;;;-3.01;100.00
39141;BME280;24875;48.436;10.298;2022-12-18T09:04:34;97562.47;;;-3.19;100.00
39141;BME280;24875;48.436;10.298;2022-12-18T09:07:00;97562.63;;;-3.23;100.00
39141;BME280;24875;48.436;10.298;2022-12-18T09:09:27;97572.53;;;-2.93;100.00
39141;BME280;24875;48.436;10.298;2022-12-18T09:11:54;97578.34;;;-3.08;100.00
39141;BME280;24875;48.436;10.298;2022-12-18T09:14:20;97570.97;;;-2.97;100.00
39141;BME280;24875;48.436;10.298;2022-12-18T09:16:48;97568.88;;;-3.29;100.00
39141;BME280;24875;48.436;10.298;2022-12-18T09:19:15;97566.59;;;-3.15;100.00
39141;BME280;24875;48.436;10.298;2022-12-18T09:21:43;97564.41;;;-3.04;100.00
39141;BME280;24875;48.436;10.298;2022-12-18T09:24:12;97565.81;;;-2.97;100.00
39141;BME280;24875;48.436;10.298;2022-12-18T09:26:39;97558.69;;;-3.10;100.00
39141;BME280;24875;48.436;10.298;2022-12-18T09:29:06;97561.69;;;-3.01;100.00
39141;BME280;24875;48.436;10.298;2022-12-18T09:31:34;97560.84;;;-3.21;100.00
39141;BME280;24875;48.436;10.298;2022-12-18T09:34:02;97566.34;;;-3.09;100.00
39141;BME280;24875;48.436;10.298;2022-12-18T09:36:28;97572.53;;;-3.13;100.00
39141;BME280;24875;48.436;10.298;2022-12-18T09:38:56;97566.06;;;-3.03;100.00
39141;BME280;24875;48.436;10.298;2022-12-18T09:41:34;97567.38;;;-2.93;100.00
39141;BME280;24875;48.436;10.298;2022-12-18T09:44:09;97561.78;;;-3.03;100.00
39141;BME280;24875;48.436;10.298;2022-12-18T09:46:40;97559.25;;;-3.04;100.00
39141;BME280;24875;48.436;10.298;2022-12-18T09:49:12;97555.06;;;-3.06;100.00
39141;BME280;24875;48.436;10.298;2022-12-18T09:51:43;97558.53;;;-3.07;100.00
39141;BME280;24875;48.436;10.298;2022-12-18T09:54:18;97555.25;;;-2.91;100.00
39141;BME280;24875;48.436;10.298;2022-12-18T09:56:46;97553.16;;;-3.02;100.00
39141;BME280;24875;48.436;10.298;2022-12-18T09:59:20;97555.84;;;-2.85;100.00
39141;BME280;24875;48.436;10.298;2022-12-18T10:01:47;97556.94;;;-2.90;100.00
39141;BME280;24875;48.436;10.298;2022-12-18T10:04:14;97548.66;;;-2.98;100.00
39141;BME280;24875;48.436;10.298;2022-12-18T10:06:46;97540.03;;;-2.97;100.00
39141;BME280;24875;48.436;10.298;2022-12-18T10:09:23;97551.00;;;-2.92;100.00
39141;BME280;24875;48.436;10.298;2022-12-18T10:12:00;97547.91;;;-3.00;100.00
39141;BME280;24875;48.436;10.298;2022-12-18T10:14:35;97553.59;;;-2.72;100.00
39141;BME280;24875;48.436;10.298;2022-12-18T10:17:11;97557.50;;;-2.64;100.00
39141;BME280;24875;48.436;10.298;2022-12-18T10:19:43;97569.25;;;-2.77;100.00
39141;BME280;24875;48.436;10.298;2022-12-18T10:22:23;97558.97;;;-2.58;100.00
39141;BME280;24875;48.436;10.298;2022-12-18T10:24:56;97547.97;;;-2.43;100.00
39141;BME280;24875;48.436;10.298;2022-12-18T10:27:26;97545.09;;;-2.56;100.00
39141;BME280;24875;48.436;10.298;2022-12-18T10:29:54;97548.47;;;-2.54;100.00
39141;BME280;24875;48.436;10.298;2022-12-18T10:32:22;97538.78;;;-2.31;100.00
39141;BME280;24875;48.436;10.298;2022-12-18T10:34:52;97537.66;;;-2.43;100.00
39141;BME280;24875;48.436;10.298;2022-12-18T10:37:21;97540.94;;;-2.40;100.00
39141;BME280;24875;48.436;10.298;2022-12-18T10:40:07;97532.22;;;-2.19;100.00
39141;BME280;24875;48.436;10.298;2022-12-18T10:42:34;97526.91;;;-2.35;100.00
39141;BME280;24875;48.436;10.298;2022-12-18T10:45:03;97536.28;;;-2.32;100.00
39141;BME280;24875;48.436;10.298;2022-12-18T10:47:33;97527.75;;;-0.60;100.00
39141;BME280;24875;48.436;10.298;2022-12-18T10:50:00;97532.44;;;-0.51;98.21
39141;BME280;24875;48.436;10.298;2022-12-18T10:52:27;97536.97;;;-1.22;96.77
39141;BME280;24875;48.436;10.298;2022-12-18T10:54:56;97537.94;;;-1.41;98.85
39141;BME280;24875;48.436;10.298;2022-12-18T10:57:34;97539.19;;;-1.66;98.34
39141;BME280;24875;48.436;10.298;2022-12-18T11:00:22;97534.81;;;-2.01;100.00
39141;BME280;24875;48.436;10.298;2022-12-18T11:02:50;97542.72;;;-2.22;100.00
39141;BME280;24875;48.436;10.298;2022-12-18T11:05:26;97546.19;;;-2.23;100.00
39141;BME280;24875;48.436;10.298;2022-12-18T11:07:53;97556.59;;;-2.63;100.00
39141;BME280;24875;48.436;10.298;2022-12-18T11:10:25;97550.06;;;-2.33;100.00
39141;BME280;24875;48.436;10.298;2022-12-18T11:12:53;97557.31;;;-2.59;100.00
39141;BME280;24875;48.436;10.298;2022-12-18T11:15:21;97548.13;;;-2.28;100.00
39141;BME280;24875;48.436;10.298;2022-12-18T11:17:50;97539.22;;;-2.21;100.00
39141;BME280;24875;48.436;10.298;2022-12-18T11:20:31;97553.59;;;-2.16;100.00
39141;BME280;24875;48.436;10.298;2022-12-18T11:23:00;97549.69;;;-2.06;100.00
39141;BME280;24875;48.436;10.298;2022-12-18T11:25:27;97558.91;;;-2.00;100.00
39141;BME280;24875;48.436;10.298;2022-12-18T11:27:57;97544.94;;;-2.15;100.00
39141;BME280;24875;48.436;10.298;2022-12-18T11:30:27;97541.81;;;-2.21;100.00
39141;BME280;24875;48.436;10.298;2022-12-18T11:32:57;97536.72;;;-2.04;100.00
39141;BME280;24875;48.436;10.298;2022-12-18T11:35:34;97542.69;;;-2.04;100.00
39141;BME280;24875;48.436;10.298;2022-12-18T11:38:05;97539.47;;;-2.09;100.00
39141;BME280;24875;48.436;10.298;2022-12-18T11:40:35;97526.22;;;-2.01;100.00
39141;BME280;24875;48.436;10.298;2022-12-18T11:43:07;97535.44;;;-1.78;100.00
39141;BME280;24875;48.436;10.298;2022-12-18T11:45:41;97533.25;;;-1.68;99.41
39141;BME280;24875;48.436;10.298;2022-12-18T11:48:14;97531.59;;;-1.69;99.81
39141;BME280;24875;48.436;10.298;2022-12-18T11:50:47;97525.09;;;-1.42;98.81
39141;BME280;24875;48.436;10.298;2022-12-18T11:53:15;97526.53;;;-1.72;99.20
39141;BME280;24875;48.436;10.298;2022-12-18T11:55:49;97513.69;;;-1.55;99.74
39141;BME280;24875;48.436;10.298;2022-12-18T11:58:28;97507.22;;;-1.47;98.27
39141;BME280;24875;48.436;10.298;2022-12-18T12:01:05;97508.28;;;-1.51;97.80
39141;BME280;24875;48.436;10.298;2022-12-18T12:04:00;97506.31;;;-1.46;97.48
39141;BME280;24875;48.436;10.298;2022-12-18T12:06:38;97509.59;;;-1.42;96.67
39141;BME280;24875;48.436;10.298;2022-12-18T12:09:17;97506.22;;;-1.80;98.73
39141;BME280;24875;48.436;10.298;2022-12-18T12:11:59;97507.56;;;-1.71;96.96
39141;BME280;24875;48.436;10.298;2022-12-18T12:14:41;97508.03;;;-2.17;100.00
39141;BME280;24875;48.436;10.298;2022-12-18T12:17:18;97507.09;;;-1.97;99.66
39141;BME280;24875;48.436;10.298;2022-12-18T12:19:51;97500.47;;;-2.03;97.98
39141;BME280;24875;48.436;10.298;2022-12-18T12:22:27;97493.44;;;-1.99;99.68
39141;BME280;24875;48.436;10.298;2022-12-18T12:25:04;97484.91;;;-2.01;99.90
39141;BME280;24875;48.436;10.298;2022-12-18T12:27:46;97473.94;;;-1.88;98.47
39141;BME280;24875;48.436;10.298;2022-12-18T12:30:20;97474.84;;;-1.89;98.83
39141;BME280;24875;48.436;10.298;2022-12-18T12:33:02;97474.59;;;-2.20;100.00
39141;BME280;24875;48.436;10.298;2022-12-18T12:35:38;97478.50;;;-1.93;99.67
39141;BME280;24875;48.436;10.298;2022-12-18T12:38:11;97478.66;;;-2.14;99.99
39141;BME280;24875;48.436;10.298;2022-12-18T12:40:44;97475.94;;;-2.11;100.00
39141;BME280;24875;48.436;10.298;2022-12-18T12:43:21;97476.53;;;-1.88;99.54
39141;BME280;24875;48.436;10.298;2022-12-18T12:45:52;97469.53;;;-1.86;99.36
39141;BME280;24875;48.436;10.298;2022-12-18T12:48:38;97465.84;;;-1.81;100.00
39141;BME280;24875;48.436;10.298;2022-12-18T12:51:12;97467.44;;;-1.78;98.09
39141;BME280;24875;48.436;10.298;2022-12-18T12:53:40;97462.13;;;-1.75;97.75